Time;durP1;ratioP1;P1;durP2;ratioP2;P2;SDS_P1;SDS_P2;PMS_P1;PMS_P2;Temp;Humidity;BMP_temperature;BMP_pressure;BME280_temperature;BME280_humidity;BME280_pressure;Samples;Min_cycle;Max_cycle;Signal;HPM_P1;HPM_P2
2022/05/08 00:01:14;;;;;;;26.70;20.00;;;;;;;13.65;72.03;98961.45;106544;1277;22700;-79
2022/05/08 00:03:40;;;;;;;28.40;19.70;;;;;;;13.57;72.25;98958.86;106204;1277;22551;-79
2022/05/08 00:06:10;;;;;;;26.70;17.30;;;;;;;13.52;72.50;98954.27;106481;1277;138440;-78
2022/05/08 00:08:40;;;;;;;27.90;18.50;;;;;;;13.53;72.60;98952.36;106366;1278;23529;-79
2022/05/08 00:11:11;;;;;;;28.30;18.80;;;;;;;13.54;72.58;98955.93;106016;1277;137563;-79
2022/05/08 00:13:38;;;;;;;29.00;20.10;;;;;;;13.55;72.75;98951.46;106009;1278;22552;-79
2022/05/08 00:16:04;;;;;;;31.70;21.30;;;;;;;13.57;72.83;98950.17;106416;1277;22638;-79
2022/05/08 00:18:30;;;;;;;35.80;20.90;;;;;;;13.58;72.95;98951.94;105810;1277;138592;-79
2022/05/08 00:20:59;;;;;;;30.30;23.20;;;;;;;13.55;73.06;98952.26;106038;1277;23365;-78
2022/05/08 00:23:26;;;;;;;24.80;17.30;;;;;;;13.52;73.21;98948.84;106123;1278;138526;-78
2022/05/08 00:26:08;;;;;;;30.80;20.50;;;;;;;13.51;73.35;98943.95;106559;1277;23036;-78
2022/05/08 00:28:38;;;;;;;33.50;21.60;;;;;;;13.50;73.54;98941.65;106077;1277;138911;-78
2022/05/08 00:31:08;;;;;;;29.50;21.50;;;;;;;13.47;73.51;98940.96;106356;1277;23426;-78
2022/05/08 00:33:34;;;;;;;36.70;23.40;;;;;;;13.45;73.82;98937.75;106194;1277;25378;-78
2022/05/08 00:36:01;;;;;;;29.10;21.30;;;;;;;13.42;73.87;98934.59;105956;1278;137551;-78
2022/05/08 00:38:30;;;;;;;27.40;18.80;;;;;;;13.43;74.00;98932.45;106378;1277;25411;-78
2022/05/08 00:40:56;;;;;;;30.60;20.80;;;;;;;13.43;74.02;98931.48;105891;1277;138830;-78
2022/05/08 00:43:38;;;;;;;30.50;21.00;;;;;;;13.44;73.99;98928.98;105970;1277;22580;-78
2022/05/08 00:46:11;;;;;;;32.40;23.60;;;;;;;13.44;74.06;98929.91;106393;1277;25363;-78
2022/05/08 00:48:39;;;;;;;33.60;22.90;;;;;;;13.39;74.15;98928.64;105826;1277;137859;-78
2022/05/08 00:51:08;;;;;;;32.30;23.60;;;;;;;13.33;74.34;98929.64;106181;1277;25281;-78
2022/05/08 00:53:40;;;;;;;32.70;22.60;;;;;;;13.30;74.72;98931.59;106342;1279;137939;-78
2022/05/08 00:56:11;;;;;;;30.80;20.50;;;;;;;13.31;74.72;98932.60;106340;1277;25476;-78
2022/05/08 00:58:38;;;;;;;30.80;21.00;;;;;;;13.33;74.89;98930.47;106093;1278;138079;-78
2022/05/08 01:01:06;;;;;;;31.80;21.00;;;;;;;13.36;74.90;98929.95;106083;1278;22576;-78
2022/05/08 01:03:33;;;;;;;31.50;22.50;;;;;;;13.35;75.00;98929.67;105799;1278;23291;-78
2022/05/08 01:06:04;;;;;;;32.00;22.20;;;;;;;13.35;75.01;98930.11;106091;1280;137548;-79
2022/05/08 01:08:33;;;;;;;29.70;20.80;;;;;;;13.35;74.99;98927.33;106572;1277;25448;-79
2022/05/08 01:11:02;;;;;;;28.60;20.20;;;;;;;13.34;74.96;98930.38;105750;1280;138530;-77
2022/05/08 01:13:28;;;;;;;;;;;;;;;13.34;74.76;98933.32;106080;1277;25270;-79
2022/05/08 01:15:55;;;;;;;31.00;20.40;;;;;;;13.35;74.82;98935.20;105804;1278;25399;-79
2022/05/08 01:18:22;;;;;;;29.00;21.60;;;;;;;13.35;74.79;98933.34;106112;1278;138340;-79
2022/05/08 01:20:49;;;;;;;29.50;20.10;;;;;;;13.34;74.53;98936.65;106178;1277;24398;-78
2022/05/08 01:23:16;;;;;;;30.90;20.60;;;;;;;13.31;74.36;98934.45;106117;1279;137961;-79
2022/05/08 01:25:51;;;;;;;27.90;20.00;;;;;;;13.27;74.47;98934.45;106211;1278;22573;-79
2022/05/08 01:28:19;;;;;;;24.50;18.20;;;;;;;13.27;74.30;98934.06;106357;1277;24007;-79
2022/05/08 01:30:47;;;;;;;27.40;19.50;;;;;;;13.29;74.36;98935.73;105922;1278;138051;-79
2022/05/08 01:33:16;;;;;;;31.60;20.70;;;;;;;13.34;74.26;98933.42;106160;1277;23409;-78
2022/05/08 01:35:44;;;;;;;29.60;20.50;;;;;;;13.36;74.21;98930.67;106471;1277;137663;-79
2022/05/08 01:38:12;;;;;;;27.10;19.50;;;;;;;13.36;73.99;98929.84;106844;1277;22572;-79
2022/05/08 01:40:40;;;;;;;30.30;21.10;;;;;;;13.36;74.23;98930.56;106115;1278;137772;-79
2022/05/08 01:43:07;;;;;;;29.50;19.90;;;;;;;13.35;74.26;98931.54;106004;1277;22806;-78
2022/05/08 01:45:34;;;;;;;26.90;19.00;;;;;;;13.35;74.16;98931.54;106195;1279;23064;-78
2022/05/08 01:50:41;;;;;;;25.70;20.40;;;;;;;13.38;74.12;98930.31;105992;1277;24499;-79
2022/05/08 01:53:07;;;;;;;27.70;20.00;;;;;;;13.40;74.02;98927.24;106298;1277;138289;-79
2022/05/08 01:55:34;;;;;;;27.20;20.70;;;;;;;13.40;73.81;98923.23;105910;1277;22550;-79
2022/05/08 01:58:05;;;;;;;28.30;20.70;;;;;;;13.41;73.74;98925.98;106115;1278;23300;-79
2022/05/08 02:00:32;;;;;;;29.10;18.70;;;;;;;13.40;73.82;98926.52;106235;1277;137449;-79
2022/05/08 02:03:00;;;;;;;26.00;19.00;;;;;;;13.40;73.80;98923.11;106127;1277;22553;-79
2022/05/08 02:05:28;;;;;;;26.80;19.90;;;;;;;13.42;73.95;98924.78;106006;1277;137932;-78
2022/05/08 02:07:55;;;;;;;29.20;21.10;;;;;;;13.44;73.95;98926.19;105885;1279;22801;-79
2022/05/08 02:10:22;;;;;;;32.30;20.70;;;;;;;13.46;74.02;98927.54;106218;1277;25276;-78
2022/05/08 02:12:49;;;;;;;30.40;21.80;;;;;;;13.47;73.96;98922.67;105710;1280;137722;-78
2022/05/08 02:15:16;;;;;;;26.80;19.50;;;;;;;13.44;73.97;98923.30;106293;1277;22557;-78
2022/05/08 02:17:42;;;;;;;32.70;20.80;;;;;;;13.41;73.92;98921.11;105884;1277;138041;-78
2022/05/08 02:20:09;;;;;;;28.70;19.10;;;;;;;13.37;74.07;98924.16;106876;1277;25450;-77
2022/05/08 02:22:37;;;;;;;24.80;18.00;;;;;;;13.33;74.25;98921.66;105893;1278;138206;-79
2022/05/08 02:25:04;;;;;;;29.90;19.60;;;;;;;13.30;73.99;98922.90;105926;1277;22597;-79
2022/05/08 02:27:51;;;;;;;25.90;19.50;;;;;;;13.25;73.96;98923.04;105895;1277;26507;-78
2022/05/08 02:30:20;;;;;;;32.70;19.30;;;;;;;13.24;74.26;98921.71;106141;1277;137673;-79
2022/05/08 02:32:46;;;;;;;;;;;;;;;13.21;74.19;98918.98;106076;1278;26506;-78
2022/05/08 02:35:13;;;;;;;26.50;17.30;;;;;;;13.21;74.41;98917.77;105965;1280;124918;-80
2022/05/08 02:37:41;;;;;;;29.70;18.70;;;;;;;13.22;74.46;98916.44;106377;1277;25415;-78
2022/05/08 02:40:10;;;;;;;26.60;18.90;;;;;;;13.22;74.30;98914.41;105928;1277;22548;-78
2022/05/08 02:42:38;;;;;;;28.10;19.70;;;;;;;13.19;74.29;98916.44;105589;1279;137902;-78
2022/05/08 02:45:20;;;;;;;25.50;18.80;;;;;;;13.17;74.52;98920.19;105807;1279;23642;-79
2022/05/08 02:48:00;;;;;;;32.80;19.80;;;;;;;13.15;74.43;98920.55;106060;1279;137675;-79
2022/05/08 02:50:27;;;;;;;30.20;19.30;;;;;;;13.12;74.54;98921.09;106162;1277;25292;-79
2022/05/08 02:52:53;;;;;;;29.70;18.10;;;;;;;13.10;74.69;98921.94;105976;1277;138443;-80
2022/05/08 03:00:42;;;;;;;30.00;19.80;;;;;;;13.11;74.85;98924.14;106224;1277;137721;-78
2022/05/08 03:03:10;;;;;;;27.50;19.20;;;;;;;13.15;74.99;98931.91;106585;1277;23289;-78
2022/05/08 03:05:44;;;;;;;31.40;18.60;;;;;;;13.19;75.25;98935.20;106006;1277;137466;-78
2022/05/08 03:08:11;;;;;;;25.20;18.50;;;;;;;13.23;75.41;98934.27;106666;1278;22592;-78
2022/05/08 03:13:18;;;;;;;26.30;19.50;;;;;;;13.30;75.69;98930.63;106040;1278;29442;-79
2022/05/08 03:15:44;;;;;;;28.50;19.70;;;;;;;13.33;75.83;98932.86;106629;1278;22553;-78
2022/05/08 03:18:10;;;;;;;29.10;19.00;;;;;;;13.34;75.92;98933.04;105878;1277;137578;-78
2022/05/08 03:20:37;;;;;;;26.40;18.70;;;;;;;13.34;75.98;98930.98;106310;1277;24431;-79
2022/05/08 03:23:03;;;;;;;25.30;18.40;;;;;;;13.36;75.93;98933.79;106208;1277;138703;-79
2022/05/08 03:25:30;;;;;;;26.50;18.70;;;;;;;13.37;75.86;98931.77;106242;1278;25494;-79
2022/05/08 03:27:56;;;;;;;26.70;19.50;;;;;;;13.39;75.94;98934.83;105859;1278;23924;-79
2022/05/08 03:30:24;;;;;;;27.50;20.10;;;;;;;13.41;75.85;98938.18;106172;1277;137513;-79
2022/05/08 03:32:50;;;;;;;31.40;20.10;;;;;;;13.42;75.84;98941.52;106183;1277;25345;-79
2022/05/08 03:35:16;;;;;;;30.50;20.10;;;;;;;13.43;75.70;98942.86;105988;1277;137703;-79
2022/05/08 03:37:57;;;;;;;26.20;19.80;;;;;;;13.43;75.45;98939.90;105955;1280;25332;-79
2022/05/08 03:40:26;;;;;;;30.50;21.70;;;;;;;13.43;75.23;98943.25;106105;1277;23056;-79
2022/05/08 03:42:54;;;;;;;31.20;21.60;;;;;;;13.44;75.42;98944.85;105711;1278;137503;-79
2022/05/08 03:45:20;;;;;;;30.40;20.10;;;;;;;13.45;75.30;98943.22;106445;1277;22553;-79
2022/05/08 03:47:52;;;;;;;29.90;20.40;;;;;;;13.46;75.37;98949.85;105857;1278;137687;-79
2022/05/08 03:50:21;;;;;;;27.70;21.20;;;;;;;13.46;75.43;98950.40;106277;1277;23181;-79
2022/05/08 03:52:48;;;;;;;28.00;19.60;;;;;;;13.47;75.70;98959.17;105777;1277;227145;-79
2022/05/08 03:55:18;;;;;;;26.90;19.70;;;;;;;13.46;75.55;98961.13;106459;1277;22564;-79
2022/05/08 03:57:45;;;;;;;31.30;23.00;;;;;;;13.45;75.48;98965.33;106566;1278;22560;-79
2022/05/08 04:00:13;;;;;;;34.10;22.70;;;;;;;13.45;75.41;98968.60;106335;1277;137679;-79
2022/05/08 04:02:40;;;;;;;36.10;24.20;;;;;;;13.45;75.36;98970.95;106692;1278;26169;-79
2022/05/08 04:05:09;;;;;;;34.50;24.10;;;;;;;13.47;75.40;98969.02;106922;1279;137929;-79
2022/05/08 04:07:40;;;;;;;36.20;26.30;;;;;;;13.47;75.49;98974.73;106358;1279;22652;-79
2022/05/08 04:10:08;;;;;;;36.40;23.70;;;;;;;13.49;75.73;98975.23;106645;1278;24238;-79
2022/05/08 04:12:35;;;;;;;39.60;25.60;;;;;;;13.52;75.68;98977.95;106654;1277;138048;-79
2022/05/08 04:15:01;;;;;;;42.50;28.70;;;;;;;13.55;75.94;98982.05;106661;1277;24212;-79
2022/05/08 04:17:31;;;;;;;40.00;28.90;;;;;;;13.60;76.10;98984.75;106247;1278;137653;-79
2022/05/08 04:19:58;;;;;;;44.00;30.70;;;;;;;13.63;75.99;98984.95;106311;1279;22604;-79
2022/05/08 04:25:05;;;;;;;43.80;28.00;;;;;;;13.64;76.31;98985.14;106011;1279;139018;-78
2022/05/08 04:27:37;;;;;;;44.70;30.10;;;;;;;13.65;76.33;98986.85;106257;1279;22704;-79
2022/05/08 04:30:04;;;;;;;44.00;31.40;;;;;;;13.68;76.70;98985.91;105811;1279;137959;-79
2022/05/08 04:32:31;;;;;;;49.90;32.40;;;;;;;13.72;76.68;98986.88;105959;1279;24391;-79
2022/05/08 04:34:57;;;;;;;49.90;31.90;;;;;;;13.76;76.73;98988.04;106615;1280;137719;-79
2022/05/08 04:37:23;;;;;;;43.20;29.10;;;;;;;13.80;76.80;98988.92;106228;1280;24198;-79
2022/05/08 04:39:49;;;;;;;43.80;30.00;;;;;;;13.85;76.71;98992.27;105891;1280;22564;-79
2022/05/08 04:42:16;;;;;;;48.90;32.40;;;;;;;13.90;76.76;98986.80;106245;1279;137483;-79
2022/05/08 04:44:59;;;;;;;42.30;31.60;;;;;;;13.92;76.61;98990.11;106154;1279;23630;-79
2022/05/08 04:47:26;;;;;;;54.10;33.20;;;;;;;13.95;76.70;98989.92;105960;1279;137796;-79
2022/05/08 04:49:53;;;;;;;46.80;32.40;;;;;;;13.99;76.75;98992.23;106227;1279;22586;-79
2022/05/08 04:52:19;;;;;;;42.80;28.90;;;;;;;14.02;76.73;98992.98;106263;1279;22572;-79
2022/05/08 04:54:47;;;;;;;46.90;33.50;;;;;;;14.04;76.61;98995.58;106214;1280;138220;-79
2022/05/08 04:57:13;;;;;;;50.60;34.70;;;;;;;14.07;76.58;98991.95;106422;1279;25359;-79
2022/05/08 04:59:42;;;;;;;;;;;;;;;14.11;76.71;98994.79;106490;1279;137526;-79
2022/05/08 05:02:09;;;;;;;49.80;33.20;;;;;;;14.13;76.66;98999.52;106874;1279;22829;-79
2022/05/08 05:04:35;;;;;;;48.40;33.20;;;;;;;14.10;76.67;99002.61;106639;1279;23932;-79
2022/05/08 05:07:02;;;;;;;46.90;30.70;;;;;;;14.12;76.65;98999.40;106257;1279;138231;-79
2022/05/08 05:09:28;;;;;;;48.30;33.00;;;;;;;14.14;76.63;98997.89;106294;1279;22574;-79
2022/05/08 05:11:54;;;;;;;50.10;33.60;;;;;;;14.18;76.50;99001.51;106095;1279;137590;-79
2022/05/08 05:14:21;;;;;;;57.30;35.80;;;;;;;14.22;76.47;99001.88;106452;1280;22729;-79
2022/05/08 05:16:47;;;;;;;53.00;35.70;;;;;;;14.27;76.61;99006.10;105899;1280;137729;-79
2022/05/08 05:19:13;;;;;;;49.20;33.40;;;;;;;14.31;76.54;99005.60;105909;1280;22551;-79
2022/05/08 05:21:39;;;;;;;50.40;32.20;;;;;;;14.35;76.48;99005.27;105953;1280;24272;-79
2022/05/08 05:24:06;;;;;;;47.60;32.80;;;;;;;14.39;76.59;99006.20;105861;1280;137809;-79
2022/05/08 05:26:32;;;;;;;50.70;34.30;;;;;;;14.46;76.79;99007.53;106550;1280;22557;-79
2022/05/08 05:28:58;;;;;;;47.50;33.10;;;;;;;14.53;76.34;99007.60;106167;1281;137768;-79
2022/05/08 05:31:25;;;;;;;53.60;35.00;;;;;;;14.60;76.55;99006.18;106606;1280;23287;-79
2022/05/08 05:33:51;;;;;;;50.10;33.90;;;;;;;14.67;76.27;99007.79;106142;1281;24288;-79
2022/05/08 05:36:18;;;;;;;47.10;30.80;;;;;;;14.72;75.84;99005.95;106113;1280;138927;-79
2022/05/08 05:38:44;;;;;;;50.70;31.20;;;;;;;14.77;75.62;99005.42;105721;1279;23859;-79
2022/05/08 05:41:11;;;;;;;47.30;31.80;;;;;;;14.81;75.27;99003.86;88449;1279;10012836;-77
2022/05/08 05:43:38;;;;;;;47.40;30.40;;;;;;;14.85;75.06;99003.69;103865;1283;25295;-79
2022/05/08 05:48:44;;;;;;;44.00;29.60;;;;;;;14.96;74.72;99007.80;105758;1280;137897;-79
2022/05/08 05:51:13;;;;;;;47.00;28.40;;;;;;;15.03;74.22;99010.66;105902;1281;24268;-79
2022/05/08 05:53:40;;;;;;;44.10;24.80;;;;;;;15.11;73.89;99010.79;105752;1281;138403;-79
2022/05/08 05:56:06;;;;;;;36.10;25.90;;;;;;;15.19;73.14;99015.13;106220;1280;22629;-79
2022/05/08 05:58:32;;;;;;;34.50;25.50;;;;;;;15.25;72.79;99018.25;106011;1280;25366;-79
2022/05/08 06:00:59;;;;;;;37.90;25.50;;;;;;;15.27;72.52;99022.16;105784;1280;137501;-79
2022/05/08 06:03:25;;;;;;;38.90;25.10;;;;;;;15.34;72.68;99020.19;105951;1280;22567;-78
2022/05/08 06:05:51;;;;;;;38.30;25.40;;;;;;;15.43;71.92;99021.29;106086;1280;138627;-78
2022/05/08 06:08:17;;;;;;;37.10;26.10;;;;;;;15.46;71.25;99022.91;106299;1280;25376;-78
2022/05/08 06:10:58;;;;;;;39.00;26.30;;;;;;;15.49;71.35;99021.89;105798;1280;137633;-78
2022/05/08 06:13:24;;;;;;;38.20;24.80;;;;;;;15.56;71.22;99016.23;105896;1280;23131;-79
2022/05/08 06:15:51;;;;;;;37.90;25.70;;;;;;;15.63;70.96;99023.41;106770;1280;22551;-79
2022/05/08 06:18:31;;;;;;;36.20;23.80;;;;;;;15.74;70.64;99016.91;106293;1279;139570;-78
2022/05/08 06:20:58;;;;;;;41.50;25.10;;;;;;;15.84;70.16;99018.41;106235;1281;22655;-78
2022/05/08 06:23:25;;;;;;;37.80;25.20;;;;;;;15.95;69.98;99020.73;106155;1281;138863;-78
2022/05/08 06:25:53;;;;;;;36.30;26.50;;;;;;;16.06;69.18;99021.29;105871;1281;22718;-78
2022/05/08 06:28:19;;;;;;;36.30;25.20;;;;;;;16.13;68.91;99021.36;106093;1281;25433;-78
2022/05/08 06:30:46;;;;;;;39.50;26.40;;;;;;;16.14;68.41;99025.00;106171;1281;138113;-78
2022/05/08 06:33:13;;;;;;;39.30;27.60;;;;;;;16.11;68.37;99021.35;106473;1281;25619;-78
2022/05/08 06:35:39;;;;;;;41.20;27.80;;;;;;;16.08;68.28;99021.30;106182;1280;137580;-78
2022/05/08 06:38:09;;;;;;;40.00;26.90;;;;;;;16.06;68.22;99021.11;105917;1281;22610;-78
2022/05/08 06:40:39;;;;;;;37.60;26.30;;;;;;;16.04;68.58;99026.05;105827;1281;24287;-78
2022/05/08 06:43:07;;;;;;;43.50;26.70;;;;;;;16.05;68.31;99024.95;106182;1281;137408;-78
2022/05/08 06:45:33;;;;;;;38.60;25.90;;;;;;;16.06;68.38;99026.88;106289;1279;25340;-78
2022/05/08 06:48:06;;;;;;;39.00;27.30;;;;;;;16.10;68.46;99030.21;106153;1280;137988;-78
2022/05/08 06:50:33;;;;;;;38.10;27.10;;;;;;;16.16;68.24;99029.84;106026;1280;23975;-78
2022/05/08 06:53:00;;;;;;;34.60;23.90;;;;;;;16.22;67.69;99030.13;105796;1280;137750;-78
2022/05/08 06:55:27;;;;;;;39.60;23.60;;;;;;;16.22;67.50;99029.38;106031;1280;22573;-78
2022/05/08 06:57:53;;;;;;;35.30;23.60;;;;;;;16.21;67.30;99028.82;106124;1280;30382;-78
2022/05/08 07:03:07;;;;;;;35.90;25.20;;;;;;;16.18;67.56;99030.02;105952;1281;22576;-78
2022/05/08 07:05:40;;;;;;;38.20;26.50;;;;;;;16.18;67.88;99030.35;106476;1281;138714;-77
2022/05/08 07:08:07;;;;;;;42.40;26.50;;;;;;;16.21;67.62;99031.56;106048;1281;31527;-78
2022/05/08 07:10:33;;;;;;;34.60;24.20;;;;;;;16.27;68.09;99034.85;105866;1281;24410;-78
2022/05/08 07:12:59;;;;;;;35.10;24.80;;;;;;;16.33;67.75;99026.03;105737;1281;137733;-78
2022/05/08 07:15:25;;;;;;;37.40;27.50;;;;;;;16.39;68.46;99027.23;106696;1281;22784;-78
2022/05/08 07:17:51;;;;;;;39.50;27.00;;;;;;;16.49;68.43;99026.46;105936;1280;137506;-78
2022/05/08 07:20:17;;;;;;;40.40;27.30;;;;;;;16.60;68.05;99030.06;106384;1280;22550;-78
2022/05/08 07:22:44;;;;;;;39.20;26.30;;;;;;;16.70;68.02;99025.48;105824;1281;24238;-78
2022/05/08 07:25:12;;;;;;;34.80;24.40;;;;;;;16.79;67.47;99025.45;105848;1281;137728;-77
2022/05/08 07:27:42;;;;;;;31.70;23.40;;;;;;;16.88;66.81;99027.64;106858;1281;22567;-77
2022/05/08 07:30:09;;;;;;;33.30;23.80;;;;;;;16.96;66.35;99029.02;105803;1281;137994;-77
2022/05/08 07:32:36;;;;;;;32.40;22.80;;;;;;;17.03;65.45;99030.46;105951;1281;25346;-78
2022/05/08 07:37:43;;;;;;;31.40;24.50;;;;;;;17.20;65.08;99035.93;106149;1280;22981;-78
2022/05/08 07:40:13;;;;;;;35.20;26.30;;;;;;;17.26;64.73;99035.77;106366;1280;23254;-78
2022/05/08 07:42:53;;;;;;;31.00;21.40;;;;;;;17.34;64.68;99036.98;105753;1280;137895;-78
2022/05/08 07:45:20;;;;;;;30.50;22.30;;;;;;;17.40;62.89;99038.08;105881;1280;22603;-77
2022/05/08 07:47:46;;;;;;;37.80;27.10;;;;;;;17.47;62.51;99042.70;105954;1280;138510;-76
2022/05/08 07:50:13;;;;;;;39.00;25.20;;;;;;;17.54;62.31;99044.68;106109;1281;22673;-79
2022/05/08 07:52:41;;;;;;;30.90;23.40;;;;;;;17.61;62.38;99042.19;106453;1280;22563;-80
2022/05/08 07:55:10;;;;;;;32.40;24.10;;;;;;;17.68;61.94;99046.70;106230;1281;137883;-79
2022/05/08 07:57:37;;;;;;;32.00;23.90;;;;;;;17.75;61.91;99047.58;106937;1279;22598;-78
2022/05/08 08:00:05;;;;;;;35.80;25.20;;;;;;;17.81;62.02;99048.40;105834;1281;137810;-79
2022/05/08 08:02:40;;;;;;;31.20;23.30;;;;;;;17.87;61.87;99051.62;105849;1283;22796;-78
2022/05/08 08:05:07;;;;;;;32.70;23.90;;;;;;;17.94;61.44;99047.13;105828;1281;137892;-78
2022/05/08 08:07:33;;;;;;;28.30;22.60;;;;;;;18.03;61.09;99048.00;106235;1280;22635;-79
2022/05/08 08:09:59;;;;;;;26.90;21.60;;;;;;;18.12;60.54;99048.24;105947;1281;25712;-79
2022/05/08 08:12:26;;;;;;;33.10;22.30;;;;;;;18.19;59.76;99048.72;106068;1281;137651;-80
2022/05/08 08:14:53;;;;;;;32.00;20.10;;;;;;;18.26;59.14;99047.21;105962;1281;25727;-79
2022/05/08 08:17:19;;;;;;;25.90;18.70;;;;;;;18.34;59.09;99051.31;106423;1280;138272;-80
2022/05/08 08:19:45;;;;;;;27.80;18.80;;;;;;;18.45;59.08;99048.06;106217;1279;22560;-79
2022/05/08 08:22:11;;;;;;;23.70;17.10;;;;;;;18.56;58.95;99048.52;106431;1280;25350;-79
2022/05/08 08:24:38;;;;;;;23.50;17.00;;;;;;;18.66;58.72;99046.05;105860;1280;138271;-79
2022/05/08 08:27:04;;;;;;;24.90;17.80;;;;;;;18.76;57.90;99045.27;106412;1280;22628;-78
2022/05/08 08:29:30;;;;;;;25.40;18.50;;;;;;;18.87;57.57;99049.16;106263;1280;138289;-79
2022/05/08 08:31:56;;;;;;;23.30;17.50;;;;;;;18.95;57.47;99049.89;105898;1281;22553;-79
2022/05/08 08:34:23;;;;;;;23.70;16.90;;;;;;;19.06;57.38;99050.36;106083;1281;25553;-79
2022/05/08 08:36:49;;;;;;;22.10;16.20;;;;;;;19.18;57.27;99050.83;106074;1281;138301;-79
2022/05/08 08:39:16;;;;;;;22.20;16.10;;;;;;;19.31;56.72;99051.61;106041;1281;22541;-79
2022/05/08 08:41:48;;;;;;;21.90;15.90;;;;;;;19.43;56.33;99048.54;106257;1281;138682;-80
2022/05/08 08:49:44;;;;;;;18.20;14.60;;;;;;;19.79;54.20;99047.92;106142;1281;24116;-79
2022/05/08 08:52:12;;;;;;;21.30;15.30;;;;;;;19.90;53.69;99046.52;106130;1279;25400;-80
2022/05/08 08:54:38;;;;;;;18.10;14.00;;;;;;;20.02;53.73;99049.61;106049;1281;138181;-80
2022/05/08 08:57:04;;;;;;;17.60;14.40;;;;;;;20.15;53.65;99051.75;106205;1280;25280;-79
2022/05/08 08:59:30;;;;;;;16.80;13.20;;;;;;;20.26;53.25;99056.05;106051;1281;137906;-80
2022/05/08 09:01:57;;;;;;;18.60;13.00;;;;;;;20.39;52.91;99055.84;105884;1282;25339;-79
2022/05/08 09:04:24;;;;;;;21.00;13.70;;;;;;;20.53;52.18;99053.35;106316;1282;25208;-79
2022/05/08 09:06:52;;;;;;;15.30;13.00;;;;;;;20.64;50.25;99053.11;105905;1281;137831;-79
2022/05/08 09:09:27;;;;;;;16.20;12.00;;;;;;;20.65;49.76;99053.82;106623;1280;25287;-79
2022/05/08 09:11:55;;;;;;;13.40;11.70;;;;;;;20.71;50.08;99051.47;106069;1280;137767;-79
2022/05/08 09:14:32;;;;;;;13.40;11.20;;;;;;;20.81;49.48;99053.77;106940;1280;23022;-78
2022/05/08 09:17:02;;;;;;;15.10;11.50;;;;;;;20.90;48.72;99050.94;106045;1280;137796;-79
2022/05/08 09:19:39;;;;;;;13.70;11.10;;;;;;;21.03;49.34;99047.80;105758;1280;22549;-79
2022/05/08 09:22:12;;;;;;;14.50;10.20;;;;;;;21.24;50.21;99045.17;106589;1280;25480;-79
2022/05/08 09:24:53;;;;;;;13.90;11.20;;;;;;;21.46;50.15;99044.27;105933;1281;137890;-79
2022/05/08 09:27:20;;;;;;;13.70;10.50;;;;;;;21.64;48.47;99041.65;105966;1281;23925;-79
2022/05/08 09:29:47;;;;;;;13.60;10.90;;;;;;;21.78;48.79;99043.67;105861;1280;137789;-79
2022/05/08 09:32:35;;;;;;;12.20;9.60;;;;;;;21.91;47.10;99044.77;105908;1280;24309;-78
2022/05/08 09:35:02;;;;;;;16.10;10.30;;;;;;;22.02;47.12;99044.24;105952;1280;137626;-79
2022/05/08 09:37:53;;;;;;;14.90;10.30;;;;;;;22.11;46.76;99037.24;106106;1280;22552;-79
2022/05/08 09:40:21;;;;;;;12.30;10.50;;;;;;;22.20;46.80;99038.67;106223;1280;22583;-79
2022/05/08 09:42:47;;;;;;;13.00;9.50;;;;;;;22.31;46.69;99035.98;106446;1281;137694;-79
2022/05/08 09:45:14;;;;;;;12.90;9.60;;;;;;;22.40;46.44;99033.47;106159;1280;22622;-79
2022/05/08 09:47:47;;;;;;;12.00;9.30;;;;;;;22.56;46.01;99033.81;106024;1281;137743;-80
2022/05/08 09:50:17;;;;;;;14.80;10.10;;;;;;;22.72;44.10;99033.63;106452;1280;22506;-79
2022/05/08 09:52:47;;;;;;;11.20;9.50;;;;;;;22.75;43.01;99035.94;105984;1283;23956;-79
2022/05/08 09:55:20;;;;;;;12.60;8.20;;;;;;;22.87;43.52;99038.34;106187;1281;138031;-79
2022/05/08 09:57:46;;;;;;;15.60;8.20;;;;;;;22.99;43.99;99029.52;106372;1281;25269;-79
2022/05/08 10:00:29;;;;;;;7.80;6.70;;;;;;;23.11;43.19;99025.70;106115;1281;137876;-79
2022/05/08 10:02:55;;;;;;;9.00;7.70;;;;;;;23.18;42.00;99021.67;105527;1279;139300;-79
2022/05/08 10:05:21;;;;;;;10.20;6.50;;;;;;;23.17;41.54;99021.73;105856;1281;24398;-79
2022/05/08 10:07:49;;;;;;;6.90;6.10;;;;;;;23.26;42.17;99021.02;106113;1280;22710;-80
2022/05/08 10:15:38;;;;;;;8.00;6.40;;;;;;;23.69;42.25;99008.86;106147;1281;137538;-80
2022/05/08 10:18:22;;;;;;;8.50;7.50;;;;;;;23.83;41.83;99007.00;106626;1281;22586;-80
2022/05/08 10:21:02;;;;;;;12.70;7.90;;;;;;;23.92;42.02;99006.06;105989;1280;23971;-80
2022/05/08 10:23:36;;;;;;;8.70;7.00;;;;;;;24.05;41.38;99003.02;106218;1281;137459;-80
2022/05/08 10:26:20;;;;;;;8.90;7.00;;;;;;;24.21;42.01;98996.73;106618;1281;24464;-80
2022/05/08 10:29:02;;;;;;;8.60;6.70;;;;;;;24.38;40.86;98997.85;106101;1281;137522;-80
2022/05/08 10:31:43;;;;;;;8.50;6.90;;;;;;;24.49;39.75;98997.36;106205;1280;25283;-80
2022/05/08 10:34:12;;;;;;;8.50;7.00;;;;;;;24.65;39.73;98997.11;105896;1280;137439;-80
2022/05/08 10:36:40;;;;;;;8.80;6.70;;;;;;;24.76;40.48;98998.11;106404;1279;25267;-80
2022/05/08 10:39:34;;;;;;;9.20;7.20;;;;;;;24.91;39.84;98994.95;106346;1280;138061;-80
2022/05/08 10:42:00;;;;;;;8.80;7.50;;;;;;;25.04;39.10;98990.23;106674;1280;24335;-80
2022/05/08 10:44:40;;;;;;;11.00;7.70;;;;;;;25.20;39.39;98990.38;105876;1281;26177;-80
2022/05/08 10:47:31;;;;;;;8.90;7.30;;;;;;;25.36;37.30;98990.59;106101;1281;137822;-80
2022/05/08 10:50:05;;;;;;;8.90;6.70;;;;;;;25.33;36.89;98990.13;106476;1281;22612;-80
2022/05/08 10:52:48;;;;;;;7.80;7.00;;;;;;;25.00;37.79;98991.64;105664;1280;137777;-80
2022/05/08 10:55:16;;;;;;;11.90;7.30;;;;;;;24.70;38.44;98991.06;106411;1280;22540;-80
2022/05/08 10:57:47;;;;;;;8.70;6.30;;;;;;;24.42;38.85;98989.44;106099;1280;137740;-80
2022/05/08 11:00:30;;;;;;;10.70;6.00;;;;;;;24.12;38.71;98986.31;106172;1280;25283;-79
2022/05/08 11:03:01;;;;;;;9.20;6.80;;;;;;;23.85;39.22;98987.05;106508;1280;22689;-79
2022/05/08 11:05:29;;;;;;;9.80;6.80;;;;;;;23.47;37.62;98990.30;105903;1281;137628;-79
2022/05/08 11:08:10;;;;;;;6.00;4.80;;;;;;;23.06;38.47;98994.27;106028;1280;24232;-79
2022/05/08 11:10:39;;;;;;;6.90;5.40;;;;;;;22.67;36.47;98993.46;106319;1280;137614;-79
2022/05/08 11:13:14;;;;;;;4.80;4.00;;;;;;;22.30;36.20;98995.39;106391;1280;22590;-79
2022/05/08 11:15:43;;;;;;;6.90;4.20;;;;;;;21.94;36.51;98996.67;105992;1281;137946;-79
2022/05/08 11:18:17;;;;;;;8.30;7.30;;;;;;;21.70;38.96;98996.92;106306;1282;23921;-78
2022/05/08 11:20:43;;;;;;;13.80;8.50;;;;;;;21.46;43.23;98997.77;105979;1281;25275;-79
2022/05/08 11:23:14;;;;;;;9.20;8.30;;;;;;;21.16;45.07;98997.09;106029;1281;137486;-79
2022/05/08 11:25:44;;;;;;;9.10;8.10;;;;;;;20.93;45.77;98996.02;106106;1281;24435;-78
2022/05/08 11:28:15;;;;;;;11.40;7.90;;;;;;;20.83;46.24;98990.29;105874;1281;137455;-79
2022/05/08 11:30:44;;;;;;;9.00;7.00;;;;;;;20.80;46.54;98985.58;105853;1281;22547;-79
2022/05/08 11:36:23;;;;;;;10.10;8.70;;;;;;;20.75;46.78;98983.71;106239;1280;26518;-79
2022/05/08 11:39:02;;;;;;;8.10;7.20;;;;;;;20.69;47.23;98983.41;105732;1281;24959;-78
2022/05/08 11:41:29;;;;;;;8.60;7.60;;;;;;;20.64;47.28;98979.45;106289;1281;140812;-79
2022/05/08 11:43:57;;;;;;;8.70;7.10;;;;;;;20.63;47.29;98980.61;106091;1280;23351;-80
2022/05/08 11:46:38;;;;;;;8.60;6.90;;;;;;;20.65;47.50;98976.27;105828;1280;137418;-79
2022/05/08 11:49:22;;;;;;;8.50;6.70;;;;;;;20.69;47.04;98972.23;106112;1280;22569;-79
2022/05/08 11:51:53;;;;;;;7.30;6.40;;;;;;;20.74;46.68;98972.11;105639;1280;137975;-79
2022/05/08 11:54:30;;;;;;;7.70;6.40;;;;;;;20.78;46.36;98974.42;106272;1281;25527;-79